createdAt,value
2022-11-21T00:00:53.512Z,6.67
2022-11-21T00:03:20.139Z,6.69
2022-11-21T00:05:47.404Z,6.57
2022-11-21T00:08:15.139Z,6.59
2022-11-21T00:10:42.377Z,6.69
2022-11-21T00:13:12.528Z,6.79
2022-11-21T00:15:39.082Z,6.81
2022-11-21T00:18:05.653Z,6.77
2022-11-21T00:20:32.864Z,6.82
2022-11-21T00:22:59.380Z,6.75
2022-11-21T00:25:25.948Z,6.37
2022-11-21T00:27:52.642Z,6.53
2022-11-21T00:30:19.255Z,6.56
2022-11-21T00:32:45.782Z,6.71
2022-11-21T00:35:13.254Z,6.77
2022-11-21T00:37:41.014Z,6.70
2022-11-21T00:40:07.863Z,6.66
2022-11-21T00:42:34.471Z,6.68
2022-11-21T00:45:01.073Z,6.78
2022-11-21T00:47:27.562Z,6.73
2022-11-21T00:49:54.063Z,6.66
2022-11-21T00:52:20.594Z,6.61
2022-11-21T00:54:47.684Z,6.67
2022-11-21T00:57:14.250Z,6.49
2022-11-21T00:59:41.254Z,6.45
2022-11-21T01:02:07.792Z,6.42
2022-11-21T01:04:34.578Z,6.26
2022-11-21T01:07:01.255Z,6.37
2022-11-21T01:09:28.831Z,6.42
2022-11-21T01:11:57.766Z,6.38
2022-11-21T01:14:28.902Z,6.39
2022-11-21T01:16:55.910Z,6.34
2022-11-21T01:19:23.561Z,6.39
2022-11-21T01:21:50.587Z,6.36
2022-11-21T01:24:17.438Z,6.28
2022-11-21T01:26:44.053Z,6.28
2022-11-21T01:29:10.851Z,6.32
2022-11-21T01:31:42.827Z,6.16
2022-11-21T01:34:11.635Z,6.32
2022-11-21T01:36:40.347Z,6.33
2022-11-21T01:39:07.335Z,6.29
2022-11-21T01:41:38.745Z,6.36
2022-11-21T01:44:23.696Z,6.20
2022-11-21T01:46:50.619Z,6.28
2022-11-21T01:49:17.161Z,6.20
2022-11-21T01:51:50.847Z,6.21
2022-11-21T01:54:17.381Z,6.25
2022-11-21T01:56:48.335Z,6.39
2022-11-21T01:59:17.034Z,6.10
2022-11-21T02:01:43.976Z,6.28
2022-11-21T02:04:10.521Z,6.30
2022-11-21T02:06:37.871Z,6.29
2022-11-21T02:09:04.855Z,6.38
2022-11-21T02:11:50.072Z,6.25
2022-11-21T02:14:16.804Z,6.32
2022-11-21T02:16:44.195Z,6.43
2022-11-21T02:19:13.173Z,6.51
2022-11-21T02:21:44.516Z,6.28
2022-11-21T02:24:16.909Z,6.25
2022-11-21T02:26:43.637Z,6.38
2022-11-21T02:29:10.671Z,6.29
2022-11-21T02:31:37.951Z,6.47
2022-11-21T02:34:04.727Z,6.42
2022-11-21T02:36:42.810Z,6.49
2022-11-21T02:39:10.910Z,6.22
2022-11-21T02:41:38.029Z,6.45
2022-11-21T02:44:30.964Z,6.38
2022-11-21T02:46:57.566Z,6.50
2022-11-21T02:49:46.467Z,6.40
2022-11-21T02:52:12.935Z,6.29
2022-11-21T02:54:39.409Z,6.10
2022-11-21T02:57:05.902Z,6.32
2022-11-21T02:59:32.382Z,6.22
2022-11-21T03:02:02.758Z,6.22
2022-11-21T03:04:29.685Z,6.30
2022-11-21T03:06:56.471Z,6.11
2022-11-21T03:09:23.017Z,6.27
2022-11-21T03:11:49.675Z,6.40
2022-11-21T03:14:16.184Z,6.32
2022-11-21T03:16:42.753Z,6.32
2022-11-21T03:19:09.293Z,6.53
2022-11-21T03:21:36.279Z,6.45
2022-11-21T03:24:03.209Z,6.31
2022-11-21T03:26:29.741Z,6.26
2022-11-21T03:28:56.227Z,6.31
2022-11-21T03:31:22.775Z,6.29
2022-11-21T03:33:49.317Z,6.13
2022-11-21T03:36:16.140Z,6.24
2022-11-21T03:38:42.732Z,6.19
2022-11-21T03:41:29.346Z,6.22
2022-11-21T03:43:56.573Z,6.19
2022-11-21T03:46:23.316Z,6.13
2022-11-21T03:48:49.803Z,6.36
2022-11-21T03:51:16.293Z,6.45
2022-11-21T03:53:42.916Z,6.51
2022-11-21T03:56:09.426Z,6.55
2022-11-21T03:58:36.073Z,6.54
2022-11-21T04:01:03.093Z,6.53
2022-11-21T04:03:30.142Z,6.73
2022-11-21T04:05:56.626Z,6.57
2022-11-21T04:08:23.195Z,6.66
2022-11-21T04:10:50.290Z,6.74
2022-11-21T04:13:17.071Z,6.82
2022-11-21T04:15:43.767Z,6.79
2022-11-21T04:18:10.352Z,6.83
2022-11-21T04:20:37.124Z,6.73
2022-11-21T04:23:16.276Z,6.64
2022-11-21T04:25:43.353Z,6.66
2022-11-21T04:28:12.541Z,6.48
2022-11-21T04:30:39.591Z,6.65
2022-11-21T04:33:06.123Z,6.67
2022-11-21T04:35:32.726Z,6.64
2022-11-21T04:37:59.202Z,6.72
2022-11-21T04:40:25.749Z,6.81
2022-11-21T04:42:52.320Z,6.57
2022-11-21T04:45:18.814Z,6.55
2022-11-21T04:47:46.464Z,6.50
2022-11-21T04:50:14.390Z,6.48
2022-11-21T04:52:41.397Z,6.48
2022-11-21T04:55:08.879Z,6.55
2022-11-21T04:57:35.589Z,6.55
2022-11-21T05:00:02.156Z,6.58
2022-11-21T05:02:28.646Z,6.55
2022-11-21T05:04:55.211Z,6.54
2022-11-21T05:07:21.810Z,6.68
2022-11-21T05:09:48.423Z,6.65
2022-11-21T05:12:33.370Z,6.73
2022-11-21T05:14:59.902Z,6.70
2022-11-21T05:17:27.801Z,6.78
2022-11-21T05:19:54.295Z,6.84
2022-11-21T05:22:20.816Z,6.91
2022-11-21T05:24:47.398Z,7.07
2022-11-21T05:27:13.896Z,7.05
2022-11-21T05:29:40.447Z,7.00
2022-11-21T05:32:06.978Z,6.88
2022-11-21T05:34:33.631Z,7.05
2022-11-21T05:37:00.175Z,7.09
2022-11-21T05:39:26.904Z,7.08
2022-11-21T05:41:57.236Z,7.19
2022-11-21T05:44:28.324Z,7.14
2022-11-21T05:46:54.999Z,7.22
2022-11-21T05:49:21.626Z,7.20
2022-11-21T05:51:48.144Z,7.09
2022-11-21T05:54:15.054Z,7.22
2022-11-21T05:56:41.571Z,7.19
2022-11-21T05:59:08.702Z,7.24
2022-11-21T06:01:53.770Z,7.31
2022-11-21T06:04:20.483Z,7.21
2022-11-21T06:06:47.055Z,7.14
2022-11-21T06:09:14.099Z,7.09
2022-11-21T06:11:40.624Z,7.09
2022-11-21T06:14:07.144Z,7.10
2022-11-21T06:16:33.602Z,7.11
2022-11-21T06:19:00.091Z,7.07
2022-11-21T06:21:28.857Z,7.03
2022-11-21T06:23:56.043Z,6.81
2022-11-21T06:26:24.029Z,6.67
2022-11-21T06:28:50.718Z,6.49
2022-11-21T06:31:19.127Z,6.67
2022-11-21T06:33:45.882Z,6.68
2022-11-21T06:36:14.057Z,6.75
2022-11-21T06:38:40.642Z,6.78
2022-11-21T06:41:08.569Z,6.76
2022-11-21T06:43:35.183Z,6.78
2022-11-21T06:46:04.107Z,6.81
2022-11-21T06:48:31.546Z,7.00
2022-11-21T06:50:58.595Z,6.97
2022-11-21T06:53:25.075Z,6.99
2022-11-21T06:55:51.617Z,7.09
2022-11-21T06:58:18.197Z,7.03
2022-11-21T07:00:44.694Z,7.09
2022-11-21T07:03:11.218Z,7.04
2022-11-21T07:05:37.796Z,7.07
2022-11-21T07:08:07.978Z,7.16
2022-11-21T07:10:42.521Z,7.07
2022-11-21T07:13:21.561Z,7.07
2022-11-21T07:15:49.569Z,7.03
2022-11-21T07:18:16.052Z,7.07
2022-11-21T07:20:42.625Z,6.94
2022-11-21T07:23:09.498Z,6.85
2022-11-21T07:25:36.935Z,6.97
2022-11-21T07:28:04.352Z,6.79
2022-11-21T07:30:31.006Z,6.78
2022-11-21T07:33:01.199Z,6.58
2022-11-21T07:35:27.808Z,6.71
2022-11-21T07:37:54.468Z,6.72
2022-11-21T07:40:21.111Z,6.78
2022-11-21T07:42:47.862Z,6.68
2022-11-21T07:45:14.917Z,6.83
2022-11-21T07:47:41.692Z,6.87
2022-11-21T07:50:08.917Z,6.82
2022-11-21T07:52:35.984Z,6.91
2022-11-21T07:55:03.757Z,7.00
2022-11-21T07:57:30.940Z,6.95
2022-11-21T07:59:57.435Z,6.82
2022-11-21T08:02:26.994Z,6.83
2022-11-21T08:04:53.691Z,6.99
2022-11-21T08:07:20.900Z,7.06
2022-11-21T08:09:47.488Z,7.08
2022-11-21T08:12:14.175Z,7.06
2022-11-21T08:14:40.767Z,7.14
2022-11-21T08:17:07.507Z,7.10
2022-11-21T08:19:34.297Z,7.14
2022-11-21T08:22:00.952Z,7.19
2022-11-21T08:24:27.550Z,7.30
2022-11-21T08:26:54.066Z,7.61
2022-11-21T08:29:20.641Z,7.70
2022-11-21T08:31:47.211Z,7.77
2022-11-21T08:34:14.791Z,7.79
2022-11-21T08:36:41.387Z,7.76
2022-11-21T08:39:07.869Z,7.90
2022-11-21T08:41:52.709Z,7.79
2022-11-21T08:44:19.278Z,8.01
2022-11-21T08:46:46.343Z,8.25
2022-11-21T08:49:12.837Z,8.38
2022-11-21T08:51:39.980Z,8.28
2022-11-21T08:54:06.649Z,8.22
2022-11-21T08:56:33.154Z,8.44
2022-11-21T08:58:59.702Z,8.47
2022-11-21T09:01:26.279Z,8.40
2022-11-21T09:03:52.882Z,8.25
2022-11-21T09:06:19.422Z,8.48
2022-11-21T09:08:47.056Z,8.46
2022-11-21T09:11:13.617Z,8.61
2022-11-21T09:13:40.200Z,8.68
2022-11-21T09:16:25.246Z,8.81
2022-11-21T09:18:52.264Z,8.84
2022-11-21T09:21:19.253Z,8.83
2022-11-21T09:23:46.916Z,9.01
2022-11-21T09:26:13.859Z,9.04
2022-11-21T09:28:41.353Z,9.13
2022-11-21T09:31:07.983Z,9.07
2022-11-21T09:33:34.442Z,9.18
2022-11-21T09:36:01.072Z,9.06
2022-11-21T09:38:27.776Z,8.87
2022-11-21T09:41:00.548Z,8.88
2022-11-21T09:43:36.375Z,8.94
2022-11-21T09:46:02.890Z,8.91
2022-11-21T09:48:30.759Z,8.98
2022-11-21T09:50:59.274Z,9.18
2022-11-21T09:53:27.684Z,9.20
2022-11-21T09:56:07.465Z,9.32
2022-11-21T09:58:34.053Z,9.52
2022-11-21T10:01:00.703Z,9.63
2022-11-21T10:03:29.416Z,10.02
2022-11-21T10:06:07.038Z,9.92
2022-11-21T10:08:52.484Z,10.02
2022-11-21T10:11:25.641Z,10.20
2022-11-21T10:14:04.516Z,9.84
2022-11-21T10:16:44.778Z,9.76
2022-11-21T10:19:26.590Z,9.74
2022-11-21T10:21:59.644Z,9.68
2022-11-21T10:24:36.178Z,9.81
2022-11-21T10:27:03.731Z,9.98
2022-11-21T10:29:38.027Z,9.98
2022-11-21T10:32:13.369Z,10.36
2022-11-21T10:34:39.926Z,10.28
2022-11-21T10:37:16.701Z,10.31
2022-11-21T10:39:44.314Z,10.43
2022-11-21T10:42:26.151Z,10.59
2022-11-21T10:45:11.205Z,10.61
2022-11-21T10:47:37.956Z,10.70
2022-11-21T10:50:10.745Z,10.89
2022-11-21T10:52:43.263Z,11.09
2022-11-21T10:55:11.338Z,10.91
2022-11-21T10:57:48.100Z,10.87
2022-11-21T11:00:15.212Z,10.40
2022-11-21T11:02:57.056Z,10.41
2022-11-21T11:05:25.018Z,10.38
2022-11-21T11:08:08.344Z,9.94
2022-11-21T11:10:36.346Z,9.75
2022-11-21T11:13:45.164Z,9.12
2022-11-21T11:16:11.124Z,8.73
2022-11-21T11:18:38.448Z,8.44
2022-11-21T11:21:21.654Z,8.62
2022-11-21T11:23:51.612Z,8.66
2022-11-21T11:26:28.204Z,8.97
2022-11-21T11:29:14.440Z,8.86
2022-11-21T11:31:45.981Z,8.98
2022-11-21T11:34:14.070Z,8.86
2022-11-21T11:36:54.383Z,8.84
2022-11-21T11:39:40.419Z,8.65
2022-11-21T11:42:37.991Z,8.57
2022-11-21T11:45:26.617Z,8.65
2022-11-21T11:47:55.209Z,8.57
2022-11-21T11:50:32.000Z,8.51
2022-11-21T11:53:07.075Z,8.66
2022-11-21T11:55:36.625Z,8.59
2022-11-21T11:58:03.842Z,8.69
2022-11-21T12:00:32.667Z,8.73
2022-11-21T12:03:02.276Z,8.81
2022-11-21T12:05:28.989Z,8.84
2022-11-21T12:11:12.507Z,8.65
2022-11-21T12:13:39.440Z,8.72
2022-11-21T12:16:13.220Z,8.92
2022-11-21T12:18:44.352Z,8.88
2022-11-21T12:21:20.671Z,8.96
2022-11-21T12:23:51.217Z,9.06
2022-11-21T12:26:20.734Z,9.21
2022-11-21T12:28:54.828Z,9.36
2022-11-21T12:31:40.054Z,9.41
2022-11-21T12:34:23.585Z,9.49
2022-11-21T12:36:53.734Z,9.25
2022-11-21T12:39:20.247Z,9.31
2022-11-21T12:42:14.841Z,9.44
2022-11-21T12:44:50.504Z,9.21
2022-11-21T12:48:00.564Z,9.34
2022-11-21T12:50:54.191Z,9.00
2022-11-21T12:53:41.864Z,9.13
2022-11-21T12:56:11.450Z,9.10
2022-11-21T12:58:39.511Z,9.24
2022-11-21T13:01:19.699Z,9.43
2022-11-21T13:03:55.540Z,9.57
2022-11-21T13:06:28.856Z,9.75
2022-11-21T13:08:56.127Z,9.99
2022-11-21T13:11:47.032Z,10.04
2022-11-21T13:14:22.799Z,9.94
2022-11-21T13:16:58.595Z,10.11
2022-11-21T13:19:25.128Z,10.22
2022-11-21T13:21:53.774Z,10.36
2022-11-21T13:24:38.938Z,10.40
2022-11-21T13:27:07.192Z,10.39
2022-11-21T13:29:33.768Z,10.40
2022-11-21T13:32:05.823Z,10.41
2022-11-21T13:34:32.458Z,10.09
2022-11-21T13:36:59.053Z,10.10
2022-11-21T13:39:27.089Z,10.03
2022-11-21T13:42:20.502Z,9.84
2022-11-21T13:44:47.728Z,9.88
2022-11-21T13:47:26.589Z,10.10
2022-11-21T13:49:53.236Z,10.22
2022-11-21T13:52:20.124Z,10.14
2022-11-21T13:54:55.518Z,10.18
2022-11-21T13:57:31.098Z,10.21
2022-11-21T13:59:57.695Z,10.15
2022-11-21T14:02:27.189Z,10.17
2022-11-21T14:05:12.610Z,10.17
2022-11-21T14:07:39.870Z,10.03
2022-11-21T14:10:17.994Z,9.94
2022-11-21T14:12:47.159Z,9.97
2022-11-21T14:15:32.612Z,10.01
2022-11-21T14:17:59.379Z,9.89
2022-11-21T14:20:27.847Z,9.84
2022-11-21T14:22:54.653Z,9.96
2022-11-21T14:25:26.364Z,9.78
2022-11-21T14:27:53.398Z,9.34
2022-11-21T14:30:32.242Z,9.39
2022-11-21T14:33:17.730Z,9.26
2022-11-21T14:35:47.477Z,9.19
2022-11-21T14:38:14.044Z,9.16
2022-11-21T14:40:40.628Z,8.98
2022-11-21T14:43:25.946Z,8.92
2022-11-21T14:45:52.657Z,8.94
2022-11-21T14:48:25.148Z,8.87
2022-11-21T14:50:51.821Z,8.90
2022-11-21T14:53:18.406Z,8.83
2022-11-21T14:55:49.365Z,8.76
2022-11-21T14:58:15.922Z,8.71
2022-11-21T15:03:29.242Z,8.65
2022-11-21T15:06:05.822Z,8.54
2022-11-21T15:09:03.249Z,8.62
2022-11-21T15:11:20.104Z,8.42
2022-11-21T15:16:34.356Z,8.30
2022-11-21T15:19:01.010Z,8.40
2022-11-21T15:21:27.570Z,8.27
2022-11-21T15:23:55.089Z,8.29
2022-11-21T15:26:32.189Z,8.27
2022-11-21T15:29:00.675Z,8.24
2022-11-21T15:31:27.671Z,8.28
2022-11-21T15:36:45.124Z,8.20
2022-11-21T15:39:21.985Z,8.12
2022-11-21T15:41:48.676Z,8.09
2022-11-21T15:44:19.551Z,8.00
2022-11-21T15:46:47.207Z,7.97
2022-11-21T15:49:32.036Z,7.95
2022-11-21T15:52:07.721Z,7.87
2022-11-21T15:54:47.355Z,7.86
2022-11-21T15:57:16.657Z,7.83
2022-11-21T15:59:43.875Z,7.81
2022-11-21T16:02:12.359Z,7.78
2022-11-21T16:04:39.000Z,7.65
2022-11-21T16:07:05.708Z,7.66
2022-11-21T16:09:32.442Z,7.50
2022-11-21T16:11:59.089Z,7.34
2022-11-21T16:14:26.275Z,7.34
2022-11-21T16:16:53.021Z,7.24
2022-11-21T16:19:19.585Z,7.19
2022-11-21T16:21:46.232Z,7.19
2022-11-21T16:24:12.732Z,7.15
2022-11-21T16:26:39.430Z,7.19
2022-11-21T16:29:06.408Z,7.22
2022-11-21T16:31:33.069Z,7.07
2022-11-21T16:34:00.673Z,7.12
2022-11-21T16:36:28.431Z,7.03
2022-11-21T16:38:55.025Z,7.00
2022-11-21T16:41:22.594Z,6.99
2022-11-21T16:43:50.208Z,6.99
2022-11-21T16:46:17.016Z,6.91
2022-11-21T16:48:43.571Z,6.96
2022-11-21T16:51:10.591Z,6.91
2022-11-21T16:53:37.433Z,6.82
2022-11-21T16:56:03.956Z,7.01
2022-11-21T16:58:30.517Z,7.08
2022-11-21T17:00:57.069Z,7.17
2022-11-21T17:03:23.653Z,7.07
2022-11-21T17:05:59.779Z,7.13
2022-11-21T17:08:28.034Z,7.15
2022-11-21T17:10:54.688Z,7.14
2022-11-21T17:13:21.932Z,7.03
2022-11-21T17:15:48.723Z,6.95
2022-11-21T17:18:15.293Z,6.95
2022-11-21T17:20:41.855Z,6.80
2022-11-21T17:23:08.373Z,6.78
2022-11-21T17:25:34.908Z,6.72
2022-11-21T17:28:01.406Z,6.71
2022-11-21T17:30:28.428Z,6.62
2022-11-21T17:32:55.343Z,6.66
2022-11-21T17:35:21.844Z,6.65
2022-11-21T17:37:48.353Z,6.68
2022-11-21T17:40:14.875Z,6.62
2022-11-21T17:42:43.346Z,6.75
2022-11-21T17:45:10.054Z,6.81
2022-11-21T17:47:36.608Z,6.90
2022-11-21T17:50:06.195Z,6.79
2022-11-21T17:52:32.978Z,6.63
2022-11-21T17:54:59.553Z,6.53
2022-11-21T17:57:26.335Z,6.49
2022-11-21T17:59:52.991Z,6.61
2022-11-21T18:02:21.805Z,6.48
2022-11-21T18:04:48.910Z,6.59
2022-11-21T18:07:15.543Z,6.73
2022-11-21T18:09:42.044Z,6.68
2022-11-21T18:12:08.533Z,6.58
2022-11-21T18:14:35.020Z,6.60
2022-11-21T18:17:01.544Z,6.66
2022-11-21T18:19:28.311Z,6.66
2022-11-21T18:21:54.980Z,6.62
2022-11-21T18:24:21.546Z,6.71
2022-11-21T18:26:48.107Z,6.84
2022-11-21T18:32:01.291Z,6.93
2022-11-21T18:34:28.312Z,6.84
2022-11-21T18:36:54.795Z,6.94
2022-11-21T18:39:24.964Z,6.83
2022-11-21T18:41:51.672Z,6.89
2022-11-21T18:44:22.248Z,6.99
2022-11-21T18:46:49.434Z,7.01
2022-11-21T18:49:16.005Z,6.96
2022-11-21T18:51:42.488Z,7.04
2022-11-21T18:54:11.180Z,7.09
2022-11-21T18:56:38.239Z,7.21
2022-11-21T18:59:06.458Z,7.06
2022-11-21T19:01:34.241Z,7.17
2022-11-21T19:04:00.861Z,7.17
2022-11-21T19:06:27.538Z,7.15
2022-11-21T19:08:54.741Z,7.24
2022-11-21T19:11:22.265Z,7.25
2022-11-21T19:13:48.962Z,7.23
2022-11-21T19:16:19.987Z,7.11
2022-11-21T19:19:05.528Z,7.11
2022-11-21T19:21:35.457Z,7.05
2022-11-21T19:24:03.092Z,7.07
2022-11-21T19:26:30.814Z,7.12
2022-11-21T19:28:57.558Z,7.06
2022-11-21T19:31:24.114Z,7.02
2022-11-21T19:33:50.933Z,7.03
2022-11-21T19:36:18.410Z,7.00
2022-11-21T19:38:50.424Z,6.95
2022-11-21T19:41:20.889Z,6.92
2022-11-21T19:43:47.509Z,6.94
2022-11-21T19:46:14.701Z,6.97
2022-11-21T19:48:41.656Z,6.98
2022-11-21T19:51:08.457Z,6.96
2022-11-21T19:53:35.877Z,7.01
2022-11-21T19:56:11.958Z,7.01
2022-11-21T19:58:39.723Z,7.00
2022-11-21T20:01:09.683Z,7.00
2022-11-21T20:03:36.987Z,7.12
2022-11-21T20:06:04.278Z,7.15
2022-11-21T20:08:30.806Z,7.24
2022-11-21T20:11:12.175Z,7.24
2022-11-21T20:13:39.910Z,7.40
2022-11-21T20:16:08.541Z,7.40
2022-11-21T20:18:35.959Z,7.41
2022-11-21T20:21:09.269Z,7.37
2022-11-21T20:23:36.058Z,7.31
2022-11-21T20:26:02.681Z,7.41
2022-11-21T20:28:29.168Z,7.43
2022-11-21T20:30:55.675Z,7.46
2022-11-21T20:33:22.170Z,7.60
2022-11-21T20:35:48.678Z,7.68
2022-11-21T20:38:18.897Z,7.69
2022-11-21T20:40:52.246Z,7.57
2022-11-21T20:43:18.767Z,7.67
2022-11-21T20:48:33.379Z,7.58
2022-11-21T20:52:49.806Z,7.69
2022-11-21T20:54:40.237Z,7.52
2022-11-21T20:57:14.482Z,7.59
2022-11-21T21:00:06.155Z,7.48
2022-11-21T21:02:33.344Z,7.42
2022-11-21T21:05:01.156Z,7.23
2022-11-21T21:07:27.764Z,7.17
2022-11-21T21:09:55.939Z,7.04
2022-11-21T21:12:23.986Z,7.11
2022-11-21T21:14:50.520Z,7.02
2022-11-21T21:17:17.041Z,7.02
2022-11-21T21:19:43.637Z,7.02
2022-11-21T21:22:10.233Z,7.00
2022-11-21T21:24:36.749Z,6.98
2022-11-21T21:27:03.290Z,7.10
2022-11-21T21:29:30.321Z,7.25
2022-11-21T21:31:57.518Z,7.29
2022-11-21T21:34:24.397Z,7.36
2022-11-21T21:36:51.310Z,7.23
2022-11-21T21:39:17.962Z,7.25
2022-11-21T21:41:47.909Z,7.26
2022-11-21T21:44:14.943Z,7.42
2022-11-21T21:46:44.995Z,7.39
2022-11-21T21:49:11.879Z,7.56
2022-11-21T21:51:38.657Z,7.52
2022-11-21T21:54:05.468Z,7.47
2022-11-21T21:56:32.140Z,7.48
2022-11-21T21:59:01.563Z,7.45
2022-11-21T22:01:29.068Z,7.57
2022-11-21T22:03:57.113Z,7.47
2022-11-21T22:06:23.673Z,7.61
2022-11-21T22:08:50.379Z,7.65
2022-11-21T22:11:21.087Z,7.64
2022-11-21T22:13:50.866Z,7.60
2022-11-21T22:16:17.553Z,7.62
2022-11-21T22:18:44.066Z,7.80
2022-11-21T22:21:14.476Z,7.63
2022-11-21T22:23:56.472Z,7.72
2022-11-21T22:26:27.673Z,7.78
2022-11-21T22:28:54.312Z,7.88
2022-11-21T22:31:20.882Z,7.89
2022-11-21T22:33:47.844Z,7.86
2022-11-21T22:36:15.485Z,7.80
2022-11-21T22:38:42.497Z,7.78
2022-11-21T22:41:15.917Z,7.74
2022-11-21T22:43:42.565Z,7.82
2022-11-21T22:46:09.964Z,7.73
2022-11-21T22:48:36.655Z,7.68
2022-11-21T22:51:03.343Z,7.69
2022-11-21T22:53:29.909Z,7.74
2022-11-21T22:56:06.397Z,7.70
2022-11-21T22:58:33.686Z,7.58
2022-11-21T23:01:06.077Z,7.59
2022-11-21T23:03:32.953Z,7.63
2022-11-21T23:06:00.196Z,7.62
2022-11-21T23:08:26.721Z,7.60
2022-11-21T23:10:53.203Z,7.56
2022-11-21T23:13:19.753Z,7.57
2022-11-21T23:15:46.295Z,7.65
2022-11-21T23:18:12.833Z,7.63
2022-11-21T23:20:39.428Z,7.74
2022-11-21T23:23:05.941Z,7.60
2022-11-21T23:25:32.427Z,7.62
2022-11-21T23:27:59.001Z,7.48
2022-11-21T23:30:25.502Z,7.46
2022-11-21T23:32:52.031Z,7.40
2022-11-21T23:35:18.558Z,7.35
2022-11-21T23:37:45.029Z,7.29
2022-11-21T23:40:11.722Z,7.30
2022-11-21T23:42:38.186Z,7.36
2022-11-21T23:45:04.935Z,7.33
2022-11-21T23:47:31.467Z,7.34
2022-11-21T23:49:58.027Z,7.33
2022-11-21T23:52:24.554Z,7.38
2022-11-21T23:54:51.057Z,7.55
2022-11-21T23:57:17.665Z,7.50
2022-11-21T23:59:44.165Z,7.45
